Time;durP1;ratioP1;P1;durP2;ratioP2;P2;SDS_P1;SDS_P2;PMS_P1;PMS_P2;Temp;Humidity;BMP_temperature;BMP_pressure;BME280_temperature;BME280_humidity;BME280_pressure;Samples;Min_cycle;Max_cycle;Signal;HPM_P1;HPM_P2
2023/05/10 00:01:33;;;;;;;5.03;2.60;;;20.80;60.80;;;;;;5067812;28;46391;-66
2023/05/10 00:04:00;;;;;;;3.30;2.40;;;20.80;60.80;;;;;;5067972;28;45464;-66
2023/05/10 00:06:27;;;;;;;2.88;2.15;;;20.80;60.80;;;;;;5065434;28;45312;-66
2023/05/10 00:08:54;;;;;;;2.58;2.35;;;20.80;60.80;;;;;;5068091;28;45365;-66
2023/05/10 00:11:21;;;;;;;2.67;2.08;;;20.80;60.80;;;;;;5067634;28;46622;-66
2023/05/10 00:13:48;;;;;;;3.65;2.65;;;20.70;60.80;;;;;;5067736;28;45432;-66
2023/05/10 00:16:15;;;;;;;2.95;2.22;;;20.70;60.70;;;;;;5067774;28;45333;-66
2023/05/10 00:18:43;;;;;;;3.95;2.25;;;20.70;60.90;;;;;;5067949;28;45416;-66
2023/05/10 00:21:10;;;;;;;3.97;2.20;;;20.70;60.90;;;;;;5067571;28;46468;-66
2023/05/10 00:23:37;;;;;;;1.73;1.58;;;20.70;61.00;;;;;;5067615;28;45582;-66
2023/05/10 00:26:04;;;;;;;3.65;1.85;;;20.70;60.90;;;;;;5067576;28;45481;-66
2023/05/10 00:28:30;;;;;;;2.65;2.15;;;20.70;61.00;;;;;;5067541;28;45440;-66
2023/05/10 00:30:57;;;;;;;4.03;1.98;;;20.60;60.80;;;;;;5067327;28;47332;-66
2023/05/10 00:33:24;;;;;;;2.60;2.05;;;20.60;60.80;;;;;;5067513;28;45349;-66
2023/05/10 00:35:52;;;;;;;4.30;2.13;;;20.60;60.80;;;;;;5067444;28;45321;-66
2023/05/10 00:38:19;;;;;;;3.38;2.10;;;20.60;61.00;;;;;;5067722;28;45510;-66
2023/05/10 00:40:46;;;;;;;3.28;2.13;;;20.60;60.80;;;;;;5067264;28;46379;-66
2023/05/10 00:43:13;;;;;;;2.25;2.03;;;20.60;60.90;;;;;;5067365;28;45302;-67
2023/05/10 00:45:40;;;;;;;2.60;2.10;;;20.60;61.00;;;;;;5067249;28;45328;-66
2023/05/10 00:48:06;;;;;;;2.17;1.88;;;20.60;61.00;;;;;;5067476;28;45427;-66
2023/05/10 00:50:33;;;;;;;2.75;1.73;;;20.60;60.90;;;;;;5066981;28;45356;-66
2023/05/10 00:53:01;;;;;;;2.58;2.10;;;20.50;61.00;;;;;;5067397;28;45305;-66
2023/05/10 00:55:28;;;;;;;3.63;2.00;;;20.50;60.90;;;;;;5067068;28;45336;-66
2023/05/10 00:57:55;;;;;;;2.50;1.85;;;20.50;61.00;;;;;;5067399;28;45392;-66
2023/05/10 01:00:22;;;;;;;2.53;1.80;;;20.50;61.00;;;;;;5067038;28;45476;-66
2023/05/10 01:02:49;;;;;;;3.05;2.00;;;20.50;61.10;;;;;;5066833;28;45384;-65
2023/05/10 01:05:16;;;;;;;1.80;1.70;;;20.50;61.10;;;;;;5065647;28;45360;-65
2023/05/10 01:07:43;;;;;;;2.08;1.73;;;20.50;61.10;;;;;;5067256;28;45423;-66
2023/05/10 01:10:12;;;;;;;2.22;1.83;;;20.50;61.10;;;;;;5066726;28;45371;-65
2023/05/10 01:12:40;;;;;;;3.30;1.80;;;20.50;61.00;;;;;;5066863;28;45245;-65
2023/05/10 01:15:07;;;;;;;1.63;1.40;;;20.40;61.80;;;;;;5066966;28;45239;-65
2023/05/10 01:17:34;;;;;;;2.15;1.80;;;20.40;60.90;;;;;;5066973;28;45364;-66
2023/05/10 01:20:01;;;;;;;1.70;1.40;;;20.40;61.00;;;;;;5066704;28;45315;-66
2023/05/10 01:23:08;;;;;;;1.80;1.50;;;20.40;61.00;;;;;;5066848;28;45442;-66
2023/05/10 01:26:00;;;;;;;2.33;1.70;;;20.40;61.00;;;;;;5040235;28;45332;-67
2023/05/10 01:28:51;;;;;;;1.92;1.60;;;20.40;61.00;;;;;;5066518;28;45385;-66
2023/05/10 01:31:31;;;;;;;1.88;1.40;;;20.40;61.00;;;;;;5066339;28;45358;-67
2023/05/10 01:34:01;;;;;;;2.17;1.60;;;20.30;61.00;;;;;;5066395;28;45372;-67
2023/05/10 01:36:30;;;;;;;1.40;1.30;;;20.30;60.90;;;;;;5066610;28;45234;-66
2023/05/10 01:39:00;;;;;;;2.72;1.77;;;20.30;61.10;;;;;;5066705;28;45413;-66
2023/05/10 01:41:30;;;;;;;1.50;1.40;;;20.30;61.10;;;;;;5066364;28;45473;-66
2023/05/10 01:44:00;;;;;;;1.73;1.33;;;20.30;61.00;;;;;;5066326;28;45417;-66
2023/05/10 01:46:29;;;;;;;1.60;1.50;;;20.30;61.10;;;;;;5066351;28;45191;-67
2023/05/10 01:48:57;;;;;;;1.77;1.30;;;20.30;61.00;;;;;;5066458;28;45425;-67
2023/05/10 01:51:27;;;;;;;2.05;1.42;;;20.20;60.90;;;;;;5066114;28;46351;-67
2023/05/10 01:53:57;;;;;;;2.05;1.45;;;20.30;61.10;;;;;;5066215;28;45167;-67
2023/05/10 01:56:25;;;;;;;1.92;1.48;;;20.20;61.00;;;;;;5066101;28;45375;-67
2023/05/10 01:58:52;;;;;;;1.45;1.35;;;20.30;61.10;;;;;;5066435;28;45268;-67
2023/05/10 02:01:19;;;;;;;1.70;1.20;;;20.20;61.00;;;;;;5066030;28;45312;-67
2023/05/10 02:03:46;;;;;;;1.67;1.30;;;20.20;61.00;;;;;;5065974;28;45285;-67
2023/05/10 02:06:13;;;;;;;2.53;1.52;;;20.20;61.00;;;;;;5066040;28;45404;-67
2023/05/10 02:08:41;;;;;;;1.33;1.15;;;20.20;61.00;;;;;;5066219;28;45306;-67
2023/05/10 02:11:08;;;;;;;1.85;1.50;;;20.20;61.00;;;;;;5065896;28;46380;-67
2023/05/10 02:13:35;;;;;;;1.75;1.20;;;20.20;61.00;;;;;;5065957;28;45333;-67
2023/05/10 02:16:02;;;;;;;1.80;1.20;;;20.20;60.90;;;;;;5065651;28;45299;-67
2023/05/10 02:18:29;;;;;;;2.20;1.50;;;20.20;61.00;;;;;;5066210;28;45388;-67
2023/05/10 02:20:56;;;;;;;1.48;1.15;;;20.20;61.00;;;;;;5065676;28;46491;-67
2023/05/10 02:23:23;;;;;;;1.77;1.17;;;20.10;61.00;;;;;;5065873;28;45166;-67
2023/05/10 02:25:51;;;;;;;1.38;1.10;;;20.10;60.90;;;;;;5065673;28;45341;-67
2023/05/10 02:28:18;;;;;;;1.00;1.00;;;20.10;61.00;;;;;;5065668;28;45400;-67
2023/05/10 02:30:45;;;;;;;1.27;1.17;;;20.10;60.90;;;;;;5065556;28;45429;-67
2023/05/10 02:33:12;;;;;;;1.30;1.20;;;20.10;60.90;;;;;;5065596;28;45388;-67
2023/05/10 02:35:38;;;;;;;1.30;1.20;;;20.10;60.90;;;;;;5065713;28;45337;-67
2023/05/10 02:38:05;;;;;;;1.30;1.20;;;20.10;61.60;;;;;;5065876;28;45397;-67
2023/05/10 02:40:32;;;;;;;1.20;1.10;;;20.10;60.90;;;;;;5065488;28;45204;-67
2023/05/10 02:43:00;;;;;;;1.20;1.10;;;20.10;60.90;;;;;;5065555;28;45366;-67
2023/05/10 02:45:30;;;;;;;1.10;1.10;;;20.10;60.90;;;;;;5065656;28;45382;-66
2023/05/10 02:47:57;;;;;;;1.27;1.00;;;20.10;60.90;;;;;;5065678;28;45380;-67
2023/05/10 02:50:23;;;;;;;1.08;1.00;;;20.00;60.80;;;;;;5065363;28;47308;-67
2023/05/10 02:52:52;;;;;;;0.93;0.93;;;20.00;60.80;;;;;;5065233;28;45310;-67
2023/05/10 02:55:21;;;;;;;1.10;0.90;;;20.00;60.90;;;;;;5065400;28;45321;-67
2023/05/10 02:57:52;;;;;;;1.00;0.90;;;20.00;60.90;;;;;;5065626;28;45361;-67
2023/05/10 03:00:20;;;;;;;2.03;1.15;;;20.00;60.80;;;;;;5065266;28;46873;-67
2023/05/10 03:02:47;;;;;;;1.63;1.00;;;20.00;60.90;;;;;;5065231;28;45306;-67
2023/05/10 03:05:14;;;;;;;1.10;1.00;;;20.00;60.90;;;;;;5065283;28;45431;-67
2023/05/10 03:07:41;;;;;;;1.10;1.00;;;20.00;60.90;;;;;;5062952;28;45345;-67
2023/05/10 03:10:08;;;;;;;1.10;1.00;;;20.00;60.80;;;;;;5064976;28;46337;-66
2023/05/10 03:12:43;;;;;;;1.27;1.02;;;20.00;60.80;;;;;;5065063;28;45168;-66
2023/05/10 03:15:14;;;;;;;0.82;0.82;;;20.00;60.80;;;;;;5065132;28;45408;-67
2023/05/10 03:17:47;;;;;;;1.33;1.00;;;19.90;60.80;;;;;;5065631;28;45440;-67
2023/05/10 03:20:21;;;;;;;0.70;0.70;;;19.90;60.80;;;;;;5065163;28;47391;-67
2023/05/10 03:22:50;;;;;;;1.00;1.00;;;19.90;60.90;;;;;;5064970;28;45253;-67
2023/05/10 03:25:18;;;;;;;0.82;0.82;;;19.90;60.80;;;;;;5065032;28;45417;-67
2023/05/10 03:27:44;;;;;;;0.95;0.95;;;19.90;60.80;;;;;;5065112;28;45548;-67
2023/05/10 03:30:12;;;;;;;1.10;1.00;;;19.90;60.80;;;;;;5067592;28;45293;-67
2023/05/10 03:32:39;;;;;;;1.85;1.10;;;19.90;60.90;;;;;;5068495;28;45303;-67
2023/05/10 03:35:09;;;;;;;0.77;0.77;;;19.90;60.90;;;;;;5068485;28;45336;-66
2023/05/10 03:37:36;;;;;;;1.23;0.93;;;19.80;60.80;;;;;;5068597;28;45230;-67
2023/05/10 03:40:03;;;;;;;1.40;1.13;;;19.80;60.90;;;;;;5068185;28;47302;-67
2023/05/10 03:42:29;;;;;;;0.90;0.90;;;19.80;60.80;;;;;;5068329;28;45288;-67
2023/05/10 03:44:56;;;;;;;1.05;0.80;;;19.80;60.80;;;;;;5068244;28;45301;-67
2023/05/10 03:47:23;;;;;;;0.60;0.60;;;19.80;60.80;;;;;;5068477;28;45381;-67
2023/05/10 03:49:50;;;;;;;1.58;0.88;;;19.80;60.80;;;;;;5068066;28;46368;-67
2023/05/10 03:52:18;;;;;;;0.95;0.80;;;19.80;60.80;;;;;;5068051;28;45191;-67
2023/05/10 03:54:44;;;;;;;0.70;0.65;;;19.80;60.80;;;;;;5068215;28;45276;-66
2023/05/10 03:57:11;;;;;;;1.13;1.00;;;19.80;60.80;;;;;;5068244;28;45407;-67
2023/05/10 03:59:38;;;;;;;1.58;0.77;;;19.80;60.80;;;;;;5067957;28;45362;-67
2023/05/10 04:02:05;;;;;;;0.50;0.50;;;19.80;60.80;;;;;;5068058;28;45278;-67
2023/05/10 04:04:31;;;;;;;1.63;1.10;;;19.80;60.80;;;;;;5068133;28;45296;-66
2023/05/10 04:06:58;;;;;;;0.88;0.88;;;19.80;60.80;;;;;;5068290;28;45313;-66
2023/05/10 04:09:26;;;;;;;0.70;0.70;;;19.70;60.70;;;;;;5067918;28;47472;-66
2023/05/10 04:11:53;;;;;;;0.70;0.70;;;19.70;60.70;;;;;;5067801;28;45295;-65
2023/05/10 04:14:20;;;;;;;0.77;0.77;;;19.70;60.80;;;;;;5067930;28;45174;-66
2023/05/10 04:16:47;;;;;;;0.45;0.45;;;19.70;60.70;;;;;;5067919;28;45277;-66
2023/05/10 04:19:14;;;;;;;0.80;0.80;;;19.70;60.80;;;;;;5067639;28;47342;-66
2023/05/10 04:21:40;;;;;;;1.02;0.85;;;19.70;60.80;;;;;;5067733;28;45388;-66
2023/05/10 04:24:07;;;;;;;0.73;0.73;;;19.70;60.80;;;;;;5067780;28;45443;-67
2023/05/10 04:26:35;;;;;;;0.80;0.80;;;19.70;60.80;;;;;;5067801;28;45432;-66
2023/05/10 04:29:02;;;;;;;0.60;0.60;;;19.70;60.80;;;;;;5067028;28;46406;-67
2023/05/10 04:31:29;;;;;;;1.15;0.88;;;19.70;60.90;;;;;;5064744;28;45321;-67
2023/05/10 04:33:56;;;;;;;0.88;0.75;;;19.70;60.80;;;;;;5067607;28;45233;-67
2023/05/10 04:36:23;;;;;;;0.85;0.80;;;19.70;60.90;;;;;;5067627;28;45432;-67
2023/05/10 04:38:49;;;;;;;0.70;0.70;;;19.60;60.80;;;;;;5067284;28;46383;-67
2023/05/10 04:41:16;;;;;;;1.38;0.80;;;19.60;60.80;;;;;;5067002;28;45266;-67
2023/05/10 04:43:44;;;;;;;0.60;0.60;;;19.60;60.80;;;;;;5067617;28;45234;-67
2023/05/10 04:46:11;;;;;;;0.80;0.80;;;19.60;60.70;;;;;;5067452;28;45408;-67
2023/05/10 04:48:38;;;;;;;0.65;0.65;;;19.60;60.80;;;;;;5067314;28;45310;-67
2023/05/10 04:51:06;;;;;;;0.55;0.55;;;19.60;60.80;;;;;;5067042;28;45322;-67
2023/05/10 04:53:33;;;;;;;0.70;0.70;;;19.60;60.70;;;;;;5067180;28;45266;-67
2023/05/10 04:55:59;;;;;;;0.73;0.70;;;19.60;60.70;;;;;;5067376;28;45408;-66
2023/05/10 04:58:26;;;;;;;0.80;0.80;;;19.60;60.70;;;;;;5067140;28;46369;-66
2023/05/10 05:00:54;;;;;;;0.77;0.77;;;19.60;60.70;;;;;;5067076;28;45345;-67
2023/05/10 05:03:21;;;;;;;0.60;0.60;;;19.60;60.80;;;;;;5067401;28;45353;-67
2023/05/10 05:05:48;;;;;;;1.83;0.60;;;19.60;60.70;;;;;;5067271;28;45246;-66
2023/05/10 05:08:15;;;;;;;0.70;0.70;;;19.50;60.70;;;;;;5066860;28;46426;-68
2023/05/10 05:10:42;;;;;;;0.68;0.68;;;19.50;60.70;;;;;;5066846;28;45380;-67
2023/05/10 05:13:09;;;;;;;0.80;0.80;;;19.50;60.60;;;;;;5067060;28;45277;-67
2023/05/10 05:15:36;;;;;;;0.60;0.60;;;19.50;60.60;;;;;;5067078;28;45258;-67
2023/05/10 05:18:04;;;;;;;0.47;0.47;;;19.50;60.70;;;;;;5066684;28;46737;-67
2023/05/10 05:20:33;;;;;;;0.60;0.60;;;19.50;60.70;;;;;;5066688;28;45404;-67
2023/05/10 05:23:00;;;;;;;0.68;0.60;;;19.50;60.70;;;;;;5066893;28;45314;-67
2023/05/10 05:25:26;;;;;;;1.58;0.63;;;19.50;60.70;;;;;;5066839;28;45254;-67
2023/05/10 05:27:53;;;;;;;0.82;0.73;;;19.50;60.70;;;;;;5066113;28;45474;-67
2023/05/10 05:30:20;;;;;;;0.57;0.57;;;19.50;60.70;;;;;;5066545;28;45276;-67
2023/05/10 05:32:47;;;;;;;0.68;0.68;;;19.40;60.70;;;;;;5066508;28;45380;-67
2023/05/10 05:35:16;;;;;;;0.70;0.70;;;19.50;60.70;;;;;;5066613;28;45575;-67
2023/05/10 05:37:42;;;;;;;0.50;0.50;;;19.50;60.70;;;;;;5066162;28;45377;-67
2023/05/10 05:40:12;;;;;;;0.77;0.70;;;19.50;60.70;;;;;;5066544;28;45270;-68
2023/05/10 05:42:39;;;;;;;0.70;0.70;;;19.40;60.70;;;;;;5058148;28;45384;-66
2023/05/10 05:45:08;;;;;;;0.70;0.70;;;19.40;60.60;;;;;;5066620;28;45329;-68
2023/05/10 05:47:35;;;;;;;0.65;0.50;;;19.40;61.20;;;;;;5066226;28;45419;-66
2023/05/10 05:50:02;;;;;;;0.70;0.70;;;19.40;60.60;;;;;;5066348;28;45404;-66
2023/05/10 05:52:30;;;;;;;1.30;0.68;;;19.40;60.60;;;;;;5065391;28;45347;-65
2023/05/10 05:54:57;;;;;;;0.60;0.60;;;19.40;60.60;;;;;;5066482;28;45292;-67
2023/05/10 05:57:24;;;;;;;0.60;0.60;;;19.40;60.60;;;;;;5066066;28;45268;-66
2023/05/10 05:59:51;;;;;;;0.60;0.60;;;19.40;60.60;;;;;;5066024;28;45290;-66
2023/05/10 06:02:17;;;;;;;0.60;0.60;;;19.40;60.70;;;;;;5066197;28;45407;-68
2023/05/10 06:04:44;;;;;;;0.60;0.60;;;19.40;60.60;;;;;;5066073;28;45451;-67
2023/05/10 06:07:11;;;;;;;0.60;0.60;;;19.40;60.70;;;;;;5065785;28;46360;-66
2023/05/10 06:09:39;;;;;;;1.50;0.52;;;19.40;60.60;;;;;;5065851;28;45199;-66
2023/05/10 06:12:06;;;;;;;0.70;0.70;;;19.40;60.70;;;;;;5065924;28;45604;-67
2023/05/10 06:14:33;;;;;;;0.40;0.40;;;19.40;60.70;;;;;;5066173;28;45393;-66
2023/05/10 06:17:00;;;;;;;0.60;0.60;;;19.40;60.70;;;;;;5065672;28;46381;-67
2023/05/10 06:19:27;;;;;;;0.60;0.60;;;19.40;60.60;;;;;;5065739;28;45256;-66
2023/05/10 06:21:53;;;;;;;0.50;0.50;;;19.40;60.70;;;;;;5065973;28;45286;-66
2023/05/10 06:24:21;;;;;;;0.50;0.50;;;19.40;60.70;;;;;;5065978;28;45393;-68
2023/05/10 06:26:49;;;;;;;0.50;0.50;;;19.40;60.60;;;;;;5065461;28;46322;-67
2023/05/10 06:29:16;;;;;;;0.50;0.50;;;19.40;60.70;;;;;;5065637;28;45369;-68
2023/05/10 06:31:43;;;;;;;0.60;0.60;;;19.40;60.60;;;;;;5065754;28;45288;-66
2023/05/10 06:34:11;;;;;;;0.73;0.60;;;19.40;60.70;;;;;;5066053;28;45322;-67
2023/05/10 06:36:38;;;;;;;0.63;0.60;;;19.40;60.70;;;;;;5065481;28;45309;-66
2023/05/10 06:39:05;;;;;;;0.40;0.40;;;19.40;60.60;;;;;;5065561;28;45309;-68
2023/05/10 06:41:32;;;;;;;0.50;0.50;;;19.40;60.60;;;;;;5065795;28;45385;-66
2023/05/10 06:44:00;;;;;;;1.00;0.57;;;19.40;60.50;;;;;;5065758;28;45243;-67
2023/05/10 06:46:27;;;;;;;0.55;0.55;;;19.40;60.50;;;;;;5065119;28;45375;-66
2023/05/10 06:48:54;;;;;;;0.50;0.50;;;19.40;60.50;;;;;;5065636;28;45372;-66
2023/05/10 06:51:21;;;;;;;0.50;0.50;;;19.40;60.50;;;;;;5065334;28;45317;-65
2023/05/10 06:53:47;;;;;;;0.60;0.60;;;19.40;60.50;;;;;;5065622;28;45229;-65
2023/05/10 06:56:14;;;;;;;0.63;0.60;;;19.40;60.50;;;;;;5065198;28;46832;-66
2023/05/10 06:58:41;;;;;;;0.52;0.52;;;19.40;60.50;;;;;;5065199;28;45329;-67
2023/05/10 07:01:09;;;;;;;0.75;0.60;;;19.40;60.50;;;;;;5065634;28;45326;-67
2023/05/10 07:03:36;;;;;;;0.50;0.50;;;19.40;60.50;;;;;;5067522;28;45545;-67
2023/05/10 07:06:04;;;;;;;0.85;0.50;;;19.40;60.50;;;;;;5068624;28;46478;-66
2023/05/10 07:08:31;;;;;;;0.52;0.52;;;19.40;60.50;;;;;;5068947;28;45246;-67
2023/05/10 07:11:03;;;;;;;0.50;0.50;;;19.30;60.40;;;;;;5068989;28;45356;-67
2023/05/10 07:13:30;;;;;;;0.50;0.50;;;19.30;60.40;;;;;;5068908;28;45500;-68
2023/05/10 07:15:56;;;;;;;1.92;0.60;;;19.40;60.50;;;;;;5068434;28;46288;-68
2023/05/10 07:18:25;;;;;;;0.60;0.60;;;19.40;60.30;;;;;;5068597;28;45318;-66
2023/05/10 07:20:51;;;;;;;0.55;0.50;;;19.40;60.40;;;;;;5068680;28;45347;-66
2023/05/10 07:23:19;;;;;;;0.50;0.50;;;19.40;60.40;;;;;;5068775;28;45266;-67
2023/05/10 07:25:46;;;;;;;0.65;0.60;;;19.40;60.40;;;;;;5068312;28;46541;-66
2023/05/10 07:28:13;;;;;;;0.50;0.50;;;19.40;60.30;;;;;;5068181;28;45368;-67
2023/05/10 07:30:40;;;;;;;0.50;0.50;;;19.40;60.30;;;;;;5068575;28;45328;-67
2023/05/10 07:33:08;;;;;;;0.50;0.50;;;19.30;60.20;;;;;;5068626;28;45433;-66
2023/05/10 07:35:36;;;;;;;0.70;0.70;;;19.40;60.30;;;;;;5068189;28;45501;-66
2023/05/10 07:38:07;;;;;;;0.90;0.70;;;19.40;60.20;;;;;;5068200;28;45313;-67
2023/05/10 07:40:34;;;;;;;0.80;0.75;;;19.40;60.20;;;;;;5068416;28;45340;-66
2023/05/10 07:43:02;;;;;;;0.70;0.70;;;19.40;60.20;;;;;;5068577;28;45454;-65
2023/05/10 07:45:29;;;;;;;0.60;0.60;;;19.40;60.30;;;;;;5068096;28;45345;-66
2023/05/10 07:47:55;;;;;;;0.60;0.60;;;19.40;60.30;;;;;;5068081;28;45312;-67
2023/05/10 07:50:22;;;;;;;0.80;0.80;;;19.40;60.30;;;;;;5068312;28;45269;-66
2023/05/10 07:52:50;;;;;;;1.30;1.08;;;19.40;60.20;;;;;;5068398;28;45320;-66
2023/05/10 07:55:18;;;;;;;0.98;0.95;;;19.40;60.20;;;;;;5065148;28;45315;-66
2023/05/10 07:57:45;;;;;;;0.77;0.73;;;19.40;60.20;;;;;;5067921;28;45309;-66
2023/05/10 08:00:14;;;;;;;0.82;0.82;;;19.40;60.20;;;;;;5068146;28;45355;-66
2023/05/10 08:02:41;;;;;;;1.00;0.70;;;19.50;60.20;;;;;;5068011;28;45252;-66
2023/05/10 08:05:08;;;;;;;1.15;1.05;;;19.50;60.10;;;;;;5067809;28;46397;-66
2023/05/10 08:07:35;;;;;;;2.15;0.85;;;19.50;60.10;;;;;;5067791;28;45249;-67
2023/05/10 08:10:03;;;;;;;0.85;0.85;;;19.50;60.10;;;;;;5067846;28;45272;-66
2023/05/10 08:12:30;;;;;;;1.45;0.90;;;19.50;60.10;;;;;;5067921;28;45242;-67
2023/05/10 08:14:57;;;;;;;1.02;0.88;;;19.50;60.10;;;;;;5066817;28;46325;-65
2023/05/10 08:17:24;;;;;;;0.82;0.82;;;19.50;60.10;;;;;;5067557;28;45324;-67
2023/05/10 08:19:51;;;;;;;1.33;1.00;;;19.50;60.10;;;;;;5067797;28;45409;-67
2023/05/10 08:22:17;;;;;;;0.80;0.80;;;19.50;60.00;;;;;;5067884;28;45405;-67
2023/05/10 08:24:44;;;;;;;0.90;0.90;;;19.50;60.20;;;;;;5066999;28;46385;-66
2023/05/10 08:27:13;;;;;;;0.90;0.90;;;19.50;60.10;;;;;;5067275;28;45345;-66
2023/05/10 08:29:39;;;;;;;1.00;0.98;;;19.50;60.10;;;;;;5067612;28;45329;-67
2023/05/10 08:32:06;;;;;;;0.90;0.90;;;19.50;60.00;;;;;;5067680;28;45332;-66
2023/05/10 08:34:33;;;;;;;0.80;0.80;;;19.60;60.00;;;;;;5067279;28;45358;-66
2023/05/10 08:37:00;;;;;;;1.05;0.85;;;19.60;59.90;;;;;;5067417;28;45257;-66
2023/05/10 08:39:27;;;;;;;0.85;0.85;;;19.60;59.90;;;;;;5067496;28;45163;-67
2023/05/10 08:41:54;;;;;;;1.02;1.00;;;19.60;59.80;;;;;;5067484;28;45404;-65
2023/05/10 08:44:22;;;;;;;1.35;1.25;;;19.60;59.70;;;;;;5067163;28;46601;-65
2023/05/10 08:46:49;;;;;;;1.23;1.10;;;19.60;59.70;;;;;;5067309;28;45264;-65
2023/05/10 08:49:18;;;;;;;1.02;0.93;;;19.60;59.70;;;;;;5067190;28;45321;-65
2023/05/10 08:51:47;;;;;;;1.83;0.90;;;19.60;60.30;;;;;;5064702;28;45242;-65
2023/05/10 08:54:14;;;;;;;1.02;1.00;;;19.60;59.60;;;;;;5066997;28;46417;-66
2023/05/10 08:56:41;;;;;;;1.33;0.90;;;19.60;59.60;;;;;;5066913;28;45325;-65
2023/05/10 08:59:08;;;;;;;1.20;1.10;;;19.60;59.50;;;;;;5067038;28;45245;-65
2023/05/10 09:01:36;;;;;;;1.17;1.02;;;19.70;59.50;;;;;;5067211;28;45353;-67
2023/05/10 09:04:04;;;;;;;1.35;1.10;;;19.70;59.50;;;;;;5066834;28;45250;-66
2023/05/10 09:06:32;;;;;;;2.55;1.10;;;19.70;59.50;;;;;;5066956;28;45232;-65
2023/05/10 09:08:58;;;;;;;1.60;1.30;;;19.80;59.50;;;;;;5067076;28;45364;-65
2023/05/10 09:11:25;;;;;;;2.70;1.38;;;19.80;59.40;;;;;;5067108;28;45353;-66
2023/05/10 09:13:52;;;;;;;1.10;1.00;;;19.80;59.50;;;;;;5066714;28;45446;-65
2023/05/10 09:16:19;;;;;;;1.58;1.30;;;19.80;59.40;;;;;;5066746;28;45306;-66
2023/05/10 09:18:47;;;;;;;1.30;1.20;;;19.80;59.40;;;;;;5066760;28;45253;-66
2023/05/10 09:21:14;;;;;;;1.80;1.25;;;19.80;59.50;;;;;;5066990;28;45325;-65
2023/05/10 09:23:43;;;;;;;1.38;1.25;;;19.80;59.50;;;;;;5066634;28;45652;-65
2023/05/10 09:26:10;;;;;;;1.55;1.10;;;19.80;59.40;;;;;;5065403;28;45348;-67
2023/05/10 09:28:51;;;;;;;1.35;1.10;;;19.80;59.40;;;;;;5066592;28;45332;-66
2023/05/10 09:31:18;;;;;;;1.40;1.30;;;19.90;59.40;;;;;;5066872;28;45396;-67
2023/05/10 09:33:46;;;;;;;1.27;1.15;;;19.90;59.30;;;;;;5066249;28;47580;-65
2023/05/10 09:36:13;;;;;;;1.30;1.20;;;19.90;59.30;;;;;;5066521;28;45308;-65
2023/05/10 09:38:47;;;;;;;1.38;1.30;;;20.00;59.30;;;;;;5066603;28;45348;-65
2023/05/10 09:41:18;;;;;;;1.50;1.40;;;20.00;59.20;;;;;;5066742;28;45455;-66
2023/05/10 09:43:45;;;;;;;1.30;1.20;;;20.00;59.30;;;;;;5066296;28;45471;-66
2023/05/10 09:46:12;;;;;;;1.65;1.30;;;20.00;59.30;;;;;;5066157;28;45429;-66
2023/05/10 09:48:49;;;;;;;1.40;1.30;;;20.00;59.20;;;;;;5123229;27;45406;-66
2023/05/10 09:51:20;;;;;;;2.33;1.20;;;20.10;59.30;;;;;;5123600;27;45301;-67
2023/05/10 09:53:47;;;;;;;1.23;1.13;;;20.10;59.20;;;;;;5123460;27;45410;-67
2023/05/10 09:56:14;;;;;;;2.47;1.35;;;20.10;59.20;;;;;;5123425;27;45237;-66
2023/05/10 09:58:41;;;;;;;1.20;1.10;;;20.10;59.10;;;;;;5123337;27;45698;-66
2023/05/10 10:01:11;;;;;;;1.77;1.30;;;20.20;59.20;;;;;;5123327;27;45332;-66
2023/05/10 10:03:42;;;;;;;2.58;1.50;;;20.20;59.00;;;;;;5123420;27;45418;-66
2023/05/10 10:06:10;;;;;;;2.00;1.25;;;20.20;59.10;;;;;;5123303;27;45374;-66
2023/05/10 10:08:37;;;;;;;1.35;1.05;;;20.30;59.10;;;;;;5123060;27;45407;-67
2023/05/10 10:11:04;;;;;;;2.28;1.48;;;20.30;59.00;;;;;;5123516;27;45627;-67
2023/05/10 10:13:31;;;;;;;1.60;1.30;;;20.30;59.00;;;;;;5123640;27;45224;-67
2023/05/10 10:15:58;;;;;;;1.48;1.38;;;20.30;59.00;;;;;;5123294;27;45504;-67
2023/05/10 10:18:26;;;;;;;1.35;1.25;;;20.30;58.90;;;;;;5123084;27;45606;-66
2023/05/10 10:20:53;;;;;;;2.70;1.48;;;20.40;59.10;;;;;;5123086;27;45406;-66
2023/05/10 10:23:22;;;;;;;2.15;1.60;;;20.30;59.00;;;;;;5123180;27;45276;-66
2023/05/10 10:25:49;;;;;;;1.45;1.17;;;20.40;59.10;;;;;;5123166;27;45327;-67
2023/05/10 10:28:22;;;;;;;1.77;1.40;;;20.40;59.10;;;;;;5122833;27;46657;-67
2023/05/10 10:30:50;;;;;;;2.47;1.30;;;20.40;59.10;;;;;;5123060;27;45229;-67
2023/05/10 10:33:37;;;;;;;1.42;1.30;;;20.50;59.10;;;;;;5123138;27;45407;-66
2023/05/10 10:36:04;;;;;;;2.30;1.30;;;20.50;59.00;;;;;;5123172;27;45256;-67
2023/05/10 10:38:59;;;;;;;2.17;1.60;;;20.50;59.10;;;;;;5122697;27;46835;-67
2023/05/10 10:41:30;;;;;;;2.28;1.33;;;20.60;59.00;;;;;;5122302;27;45342;-67
2023/05/10 10:44:26;;;;;;;1.58;1.48;;;20.60;58.90;;;;;;5122992;27;45355;-66
2023/05/10 10:47:08;;;;;;;2.05;1.60;;;20.60;58.90;;;;;;5122573;27;45365;-67
2023/05/10 10:49:39;;;;;;;3.97;1.60;;;20.60;58.90;;;;;;5122604;27;45510;-67
2023/05/10 10:52:22;;;;;;;3.67;1.50;;;20.60;59.00;;;;;;5122633;27;45244;-66
2023/05/10 10:54:53;;;;;;;1.80;1.42;;;20.60;59.00;;;;;;5122497;27;45410;-66
2023/05/10 10:57:21;;;;;;;2.40;1.60;;;20.60;59.00;;;;;;5122831;27;45308;-67
2023/05/10 10:59:48;;;;;;;1.60;1.50;;;20.60;59.00;;;;;;5110573;27;46657;-67
2023/05/10 11:02:44;;;;;;;2.35;2.00;;;20.70;59.10;;;;;;5108689;27;45292;-66
2023/05/10 11:05:41;;;;;;;1.80;1.50;;;20.70;59.10;;;;;;5108604;27;45315;-67
2023/05/10 11:08:10;;;;;;;1.35;1.25;;;20.70;58.80;;;;;;5065694;28;45563;-66
2023/05/10 11:10:38;;;;;;;1.50;1.40;;;20.80;59.00;;;;;;5098697;27;46350;-66
2023/05/10 11:13:05;;;;;;;1.55;1.45;;;20.80;58.80;;;;;;5108408;27;45260;-66
2023/05/10 11:15:32;;;;;;;3.17;2.10;;;20.80;58.80;;;;;;5108475;27;45187;-66
2023/05/10 11:17:59;;;;;;;1.60;1.50;;;20.80;59.50;;;;;;5108651;27;45265;-67
2023/05/10 11:20:33;;;;;;;1.73;1.63;;;20.80;59.00;;;;;;5107986;27;46401;-65
2023/05/10 11:23:11;;;;;;;1.70;1.60;;;20.80;58.90;;;;;;5108294;27;45329;-66
2023/05/10 11:25:44;;;;;;;2.35;1.50;;;20.80;58.90;;;;;;5108418;27;45379;-67
2023/05/10 11:28:11;;;;;;;1.83;1.48;;;20.80;58.80;;;;;;5108362;27;45422;-66
2023/05/10 11:30:38;;;;;;;2.60;1.75;;;20.80;58.90;;;;;;5107929;27;45547;-67
2023/05/10 11:33:05;;;;;;;1.48;1.35;;;20.80;58.90;;;;;;5108016;27;45318;-66
2023/05/10 11:35:32;;;;;;;3.45;1.73;;;20.80;59.50;;;;;;5108098;27;45341;-66
2023/05/10 11:37:59;;;;;;;1.67;1.58;;;20.80;59.00;;;;;;5108429;27;45286;-66
2023/05/10 11:40:26;;;;;;;2.60;1.38;;;20.80;58.80;;;;;;5107891;27;45343;-67
2023/05/10 11:42:56;;;;;;;1.52;1.42;;;20.80;58.80;;;;;;5107822;27;45435;-66
2023/05/10 11:45:24;;;;;;;1.63;1.50;;;20.80;58.90;;;;;;5107942;27;45153;-67
2023/05/10 11:47:51;;;;;;;1.85;1.50;;;20.80;58.90;;;;;;5107965;27;45608;-66
2023/05/10 11:50:18;;;;;;;2.00;1.60;;;20.80;59.00;;;;;;5107814;27;46372;-67
2023/05/10 11:52:45;;;;;;;7.25;1.65;;;20.80;59.00;;;;;;5107636;27;45438;-65
2023/05/10 11:55:12;;;;;;;3.13;1.63;;;20.80;59.10;;;;;;5107918;27;45306;-65
2023/05/10 11:57:41;;;;;;;2.97;1.42;;;20.80;59.10;;;;;;5108012;27;45256;-65
2023/05/10 12:00:11;;;;;;;1.50;1.40;;;20.80;59.10;;;;;;5107883;27;45277;-66
2023/05/10 12:02:38;;;;;;;1.60;1.50;;;20.80;59.00;;;;;;5105241;27;45124;-65
2023/05/10 12:05:05;;;;;;;2.17;1.50;;;20.80;59.00;;;;;;5107889;27;45275;-66
2023/05/10 12:07:32;;;;;;;2.08;1.58;;;20.80;58.90;;;;;;5107956;27;45342;-66
2023/05/10 12:10:07;;;;;;;1.70;1.45;;;20.90;59.10;;;;;;5106324;27;45468;-66
2023/05/10 12:12:39;;;;;;;2.75;1.42;;;20.90;59.00;;;;;;5107379;27;45284;-66
2023/05/10 12:15:07;;;;;;;2.30;1.40;;;20.90;59.50;;;;;;5107516;27;45468;-66
2023/05/10 12:17:35;;;;;;;2.17;1.38;;;20.90;58.60;;;;;;5107565;27;45635;-65
2023/05/10 12:20:14;;;;;;;1.67;1.58;;;20.90;58.30;;;;;;5107452;27;45502;-66
2023/05/10 12:22:41;;;;;;;2.28;1.35;;;20.90;58.70;;;;;;5107466;27;45380;-65
2023/05/10 12:25:10;;;;;;;1.55;1.30;;;20.80;58.70;;;;;;5107537;27;45438;-66
2023/05/10 12:27:37;;;;;;;1.55;1.30;;;20.80;58.80;;;;;;5107702;27;45252;-66
2023/05/10 12:30:04;;;;;;;2.53;1.50;;;20.80;58.40;;;;;;5107221;27;46691;-65
2023/05/10 12:32:42;;;;;;;3.70;1.50;;;20.80;58.90;;;;;;5107170;27;45340;-66
2023/05/10 12:35:09;;;;;;;2.17;1.48;;;20.80;58.90;;;;;;5107261;27;45327;-66
2023/05/10 12:37:38;;;;;;;1.50;1.40;;;20.80;59.00;;;;;;5107493;27;45170;-66
2023/05/10 12:40:07;;;;;;;3.42;1.60;;;20.80;58.50;;;;;;5107222;27;47625;-66
2023/05/10 12:42:35;;;;;;;2.75;1.55;;;20.80;58.60;;;;;;5106972;27;45370;-67
2023/05/10 12:45:02;;;;;;;2.45;1.50;;;20.80;58.60;;;;;;5107164;27;45256;-66
2023/05/10 12:47:29;;;;;;;2.35;1.50;;;20.80;58.80;;;;;;5105205;27;45251;-67
2023/05/10 12:49:57;;;;;;;1.50;1.40;;;20.80;58.80;;;;;;5106681;27;46659;-66
2023/05/10 12:52:24;;;;;;;2.10;1.48;;;20.80;58.70;;;;;;5106790;27;45629;-67
2023/05/10 12:54:51;;;;;;;2.45;1.35;;;20.80;58.80;;;;;;5106889;27;45286;-67